createdAt,value
2019-06-07T00:00:36.806Z,4.33
2019-06-07T00:02:10.664Z,4.17
2019-06-07T00:04:01.711Z,4.80
2019-06-07T00:05:52.288Z,4.20
2019-06-07T00:07:43.146Z,3.73
2019-06-07T00:09:33.540Z,4.07
2019-06-07T00:11:24.689Z,4.00
2019-06-07T00:13:18.112Z,4.00
2019-06-07T00:15:12.955Z,4.17
2019-06-07T00:16:59.374Z,4.43
2019-06-07T00:18:50.072Z,4.00
2019-06-07T00:20:40.889Z,4.07
2019-06-07T00:22:33.453Z,4.00
2019-06-07T00:24:23.284Z,4.50
2019-06-07T00:26:18.181Z,3.80
2019-06-07T00:28:08.168Z,4.27
2019-06-07T00:29:59.164Z,4.03
2019-06-07T00:31:50.064Z,4.20
2019-06-07T00:33:41.408Z,4.17
2019-06-07T00:35:31.884Z,3.90
2019-06-07T00:37:25.154Z,3.93
2019-06-07T00:39:21.935Z,3.90
2019-06-07T00:41:06.919Z,4.23
2019-06-07T00:42:58.243Z,3.87
2019-06-07T00:44:48.937Z,4.80
2019-06-07T00:46:39.822Z,4.23
2019-06-07T00:48:32.966Z,4.70
2019-06-07T00:50:24.353Z,5.00
2019-06-07T00:53:10.741Z,4.40
2019-06-07T00:54:07.952Z,3.90
2019-06-07T00:55:58.252Z,4.67
2019-06-07T00:57:49.368Z,4.28
2019-06-07T00:59:40.565Z,4.20
2019-06-07T01:01:31.964Z,4.67
2019-06-07T01:03:25.676Z,4.40
2019-06-07T01:05:18.020Z,5.27
2019-06-07T01:07:07.429Z,4.97
2019-06-07T01:08:58.596Z,4.90
2019-06-07T01:10:53.809Z,4.47
2019-06-07T01:12:42.025Z,4.53
2019-06-07T01:14:33.075Z,4.97
2019-06-07T01:16:25.731Z,5.30
2019-06-07T01:20:08.520Z,5.53
2019-06-07T01:21:59.668Z,5.00
2019-06-07T01:24:12.035Z,5.63
2019-06-07T01:25:42.910Z,5.37
2019-06-07T01:27:34.426Z,5.30
2019-06-07T01:29:27.442Z,5.80
2019-06-07T01:31:19.239Z,5.23
2019-06-07T01:33:08.715Z,6.03
2019-06-07T01:34:59.831Z,6.00
2019-06-07T01:36:50.964Z,5.60
2019-06-07T01:38:42.123Z,5.47
2019-06-07T01:40:33.235Z,6.90
2019-06-07T01:42:28.855Z,6.53
2019-06-07T01:44:18.536Z,6.10
2019-06-07T01:46:09.209Z,6.20
2019-06-07T01:48:00.496Z,5.53
2019-06-07T01:49:51.693Z,5.70
2019-06-07T01:51:42.056Z,6.00
2019-06-07T01:53:33.516Z,6.37
2019-06-07T01:55:29.294Z,5.57
2019-06-07T01:57:36.625Z,5.70
2019-06-07T01:59:09.884Z,6.33
2019-06-07T02:01:00.861Z,5.90
2019-06-07T02:02:52.102Z,5.80
2019-06-07T02:04:43.537Z,5.77
2019-06-07T02:06:34.490Z,5.63
2019-06-07T02:08:27.256Z,5.70
2019-06-07T02:10:19.679Z,5.63
2019-06-07T02:12:25.727Z,6.00
2019-06-07T02:14:01.983Z,5.73
2019-06-07T02:15:52.559Z,6.10
2019-06-07T02:17:43.711Z,6.03
2019-06-07T02:19:34.352Z,5.47
2019-06-07T02:21:28.050Z,6.10
2019-06-07T02:23:17.328Z,6.33
2019-06-07T02:27:00.506Z,5.63
2019-06-07T02:28:51.707Z,6.27
2019-06-07T02:30:50.603Z,6.27
2019-06-07T02:32:36.686Z,6.83
2019-06-07T02:34:28.066Z,6.07
2019-06-07T02:36:18.800Z,6.47
2019-06-07T02:38:09.817Z,6.10
2019-06-07T02:40:01.059Z,6.63
2019-06-07T02:41:52.170Z,6.10
2019-06-07T02:43:43.384Z,6.10
2019-06-07T02:45:42.114Z,6.10
2019-06-07T02:47:28.692Z,6.40
2019-06-07T02:49:18.921Z,6.37
2019-06-07T02:51:09.848Z,7.13
2019-06-07T02:53:01.098Z,6.23
2019-06-07T02:54:52.388Z,6.87
2019-06-07T02:56:56.822Z,6.83
2019-06-07T02:58:41.552Z,6.60
2019-06-07T03:00:47.527Z,7.17
2019-06-07T03:02:19.504Z,6.87
2019-06-07T03:04:10.371Z,6.83
2019-06-07T03:06:01.496Z,6.37
2019-06-07T03:07:52.819Z,6.73
2019-06-07T03:09:44.018Z,6.30
2019-06-07T03:11:37.173Z,6.30
2019-06-07T03:13:28.942Z,6.60
2019-06-07T03:15:32.882Z,6.70
2019-06-07T03:17:11.835Z,7.07
2019-06-07T03:19:02.700Z,6.37
2019-06-07T03:21:04.911Z,6.97
2019-06-07T03:22:45.755Z,7.20
2019-06-07T03:24:41.273Z,6.40
2019-06-07T03:26:31.313Z,6.27
2019-06-07T03:28:20.955Z,6.77
2019-06-07T03:32:04.400Z,6.93
2019-06-07T03:33:54.920Z,6.73
2019-06-07T03:35:45.263Z,5.93
2019-06-07T03:37:40.752Z,7.03
2019-06-07T03:39:29.623Z,7.03
2019-06-07T03:41:21.774Z,6.53
2019-06-07T03:43:13.039Z,7.23
2019-06-07T03:45:04.419Z,6.63
2019-06-07T03:46:55.740Z,6.27
2019-06-07T03:48:46.153Z,7.00
2019-06-07T03:50:41.847Z,6.90
2019-06-07T03:52:30.027Z,5.97
2019-06-07T03:54:21.411Z,7.07
2019-06-07T03:56:13.172Z,5.90
2019-06-07T03:59:57.832Z,6.17
2019-06-07T04:01:48.819Z,6.60
2019-06-07T04:03:46.496Z,6.57
2019-06-07T04:05:38.184Z,6.37
2019-06-07T04:07:24.584Z,6.60
2019-06-07T04:09:15.953Z,6.00
2019-06-07T04:11:06.623Z,6.20
2019-06-07T04:12:57.864Z,6.13
2019-06-07T04:14:48.682Z,6.13
2019-06-07T04:16:44.025Z,6.10
2019-06-07T04:18:33.058Z,6.03
2019-06-07T04:20:23.569Z,5.80
2019-06-07T04:22:14.877Z,5.13
2019-06-07T04:24:05.951Z,5.83
2019-06-07T04:25:57.160Z,5.60
2019-06-07T04:27:48.494Z,6.00
2019-06-07T04:30:03.158Z,5.20
2019-06-07T04:31:32.643Z,5.00
2019-06-07T04:33:28.777Z,5.73
2019-06-07T04:35:20.415Z,5.50
2019-06-07T04:37:10.895Z,5.63
2019-06-07T04:39:01.485Z,5.70
2019-06-07T04:40:52.455Z,5.13
2019-06-07T04:42:45.191Z,5.77
2019-06-07T04:44:39.318Z,5.87
2019-06-07T04:46:28.895Z,5.63
2019-06-07T04:48:20.367Z,5.83
2019-06-07T04:50:11.086Z,5.07
2019-06-07T04:52:01.961Z,6.50
2019-06-07T04:53:53.560Z,6.10
2019-06-07T04:55:45.577Z,6.10
2019-06-07T04:57:37.588Z,5.97
2019-06-07T05:01:32.373Z,6.10
2019-06-07T05:03:23.920Z,6.60
2019-06-07T05:05:15.141Z,6.40
2019-06-07T05:07:06.184Z,6.17
2019-06-07T05:08:57.241Z,5.90
2019-06-07T05:10:47.838Z,6.10
2019-06-07T05:12:40.491Z,6.97
2019-06-07T05:14:32.778Z,6.93
2019-06-07T05:16:23.149Z,6.73
2019-06-07T05:18:14.424Z,7.33
2019-06-07T05:20:05.042Z,6.73
2019-06-07T05:22:04.184Z,7.30
2019-06-07T05:24:06.445Z,7.40
2019-06-07T05:25:44.505Z,7.70
2019-06-07T05:27:35.513Z,7.50
2019-06-07T05:29:25.735Z,7.97
2019-06-07T05:31:16.880Z,8.90
2019-06-07T05:33:07.845Z,8.80
2019-06-07T05:34:59.282Z,8.83
2019-06-07T05:37:10.526Z,8.20
2019-06-07T05:38:44.698Z,9.40
2019-06-07T05:40:36.525Z,8.97
2019-06-07T05:42:26.887Z,9.30
2019-06-07T05:44:17.765Z,9.03
2019-06-07T05:46:08.687Z,8.90
2019-06-07T05:47:59.809Z,9.63
2019-06-07T05:49:50.793Z,8.83
2019-06-07T05:51:44.879Z,9.83
2019-06-07T05:53:34.854Z,8.47
2019-06-07T05:55:25.893Z,8.33
2019-06-07T05:57:19.649Z,8.87
2019-06-07T05:59:10.217Z,9.20
2019-06-07T06:01:41.413Z,8.50
2019-06-07T06:03:04.618Z,9.50
2019-06-07T06:04:49.202Z,9.10
2019-06-07T06:06:43.662Z,8.60
2019-06-07T06:08:36.109Z,8.43
2019-06-07T06:10:26.699Z,8.13
2019-06-07T06:12:34.175Z,8.57
2019-06-07T06:14:09.811Z,8.53
2019-06-07T06:16:02.416Z,8.03
2019-06-07T06:17:53.723Z,8.07
2019-06-07T06:19:49.248Z,8.03
2019-06-07T06:21:38.572Z,8.20
2019-06-07T06:23:29.504Z,7.43
2019-06-07T06:25:37.538Z,7.57
2019-06-07T06:27:40.903Z,8.10
2019-06-07T06:31:14.443Z,8.33
2019-06-07T06:33:05.100Z,8.73
2019-06-07T06:34:56.092Z,7.63
2019-06-07T06:36:50.260Z,8.53
2019-06-07T06:38:39.746Z,7.37
2019-06-07T06:40:31.187Z,7.37
2019-06-07T06:42:21.642Z,7.20
2019-06-07T06:44:13.163Z,7.77
2019-06-07T06:46:04.284Z,8.20
2019-06-07T06:47:55.628Z,7.53
2019-06-07T06:49:49.995Z,7.60
2019-06-07T06:51:40.063Z,7.50
2019-06-07T06:53:31.247Z,8.00
2019-06-07T06:55:22.219Z,7.83
2019-06-07T06:57:19.676Z,7.28
2019-06-07T07:01:06.508Z,7.30
2019-06-07T07:04:42.298Z,7.03
2019-06-07T07:06:33.768Z,6.90
2019-06-07T07:08:24.955Z,6.50
2019-06-07T07:10:16.301Z,6.65
2019-06-07T07:12:11.690Z,6.72
2019-06-07T07:13:59.137Z,7.53
2019-06-07T07:15:55.095Z,6.80
2019-06-07T07:17:54.227Z,6.80
2019-06-07T07:19:34.394Z,5.70
2019-06-07T07:21:25.388Z,6.20
2019-06-07T07:23:17.369Z,5.72
2019-06-07T07:25:08.932Z,6.03
2019-06-07T07:26:59.444Z,5.85
2019-06-07T07:28:51.756Z,6.60
2019-06-07T07:30:43.091Z,6.00
2019-06-07T07:32:34.171Z,6.10
2019-06-07T07:34:34.873Z,6.07
2019-06-07T07:36:35.619Z,5.35
2019-06-07T07:38:10.328Z,5.70
2019-06-07T07:40:53.875Z,6.00
2019-06-07T07:42:13.818Z,5.80
2019-06-07T07:43:54.451Z,5.67
2019-06-07T07:45:38.271Z,5.12
2019-06-07T07:47:28.892Z,5.60
2019-06-07T07:49:19.992Z,5.40
2019-06-07T07:51:11.364Z,5.65
2019-06-07T07:53:01.902Z,5.65
2019-06-07T07:54:57.796Z,5.40
2019-06-07T07:56:46.975Z,5.40
2019-06-07T07:58:37.388Z,5.22
2019-06-07T08:02:20.446Z,5.08
2019-06-07T08:04:11.448Z,4.97
2019-06-07T08:06:01.743Z,5.10
2019-06-07T08:07:56.476Z,5.35
2019-06-07T08:09:44.807Z,4.85
2019-06-07T08:11:35.030Z,4.87
2019-06-07T08:13:27.635Z,4.85
2019-06-07T08:15:17.889Z,5.28
2019-06-07T08:17:09.160Z,5.03
2019-06-07T08:19:03.861Z,4.55
2019-06-07T08:21:20.435Z,5.00
2019-06-07T08:22:44.931Z,4.83
2019-06-07T08:24:36.208Z,4.50
2019-06-07T08:26:27.907Z,4.83
2019-06-07T08:28:19.264Z,4.87
2019-06-07T08:30:46.535Z,5.22
2019-06-07T08:32:01.844Z,4.67
2019-06-07T08:33:56.558Z,4.45
2019-06-07T08:38:14.996Z,4.70
2019-06-07T08:39:30.332Z,4.72
2019-06-07T08:41:21.592Z,4.50
2019-06-07T08:43:20.314Z,4.42
2019-06-07T08:45:05.813Z,4.75
2019-06-07T08:47:12.613Z,4.83
2019-06-07T08:48:49.999Z,4.62
2019-06-07T08:50:40.863Z,4.92
2019-06-07T08:52:32.106Z,5.00
2019-06-07T08:54:23.606Z,5.37
2019-06-07T08:56:14.660Z,5.37
2019-06-07T08:58:08.605Z,5.30
2019-06-07T09:00:05.969Z,5.40
2019-06-07T09:01:52.080Z,4.90
2019-06-07T09:03:42.430Z,5.17
2019-06-07T09:05:33.664Z,4.62
2019-06-07T09:07:24.553Z,4.50
2019-06-07T09:09:15.844Z,4.60
2019-06-07T09:11:11.369Z,5.03
2019-06-07T09:13:03.156Z,4.75
2019-06-07T09:15:06.775Z,4.58
2019-06-07T09:16:42.791Z,4.67
2019-06-07T09:18:42.759Z,5.12
2019-06-07T09:20:36.521Z,5.58
2019-06-07T09:22:18.298Z,4.90
2019-06-07T09:24:11.554Z,4.80
2019-06-07T09:26:12.881Z,4.42
2019-06-07T09:27:53.534Z,5.47
2019-06-07T09:29:44.682Z,5.87
2019-06-07T09:31:51.935Z,4.67
2019-06-07T09:33:27.609Z,5.65
2019-06-07T09:35:19.029Z,5.50
2019-06-07T09:37:55.943Z,5.42
2019-06-07T09:39:07.609Z,5.85
2019-06-07T09:40:54.692Z,5.15
2019-06-07T09:42:45.816Z,5.15
2019-06-07T09:44:37.101Z,5.28
2019-06-07T09:46:28.084Z,6.05
2019-06-07T09:49:01.220Z,5.15
2019-06-07T09:50:12.432Z,5.00
2019-06-07T09:52:09.093Z,5.40
2019-06-07T09:53:56.201Z,5.05
2019-06-07T09:55:48.076Z,5.58
2019-06-07T09:57:39.009Z,5.60
2019-06-07T09:59:29.579Z,5.97
2019-06-07T10:01:20.335Z,5.70
2019-06-07T10:03:20.031Z,5.17
2019-06-07T10:05:06.983Z,5.05
2019-06-07T10:07:03.980Z,6.30
2019-06-07T10:10:42.918Z,5.22
2019-06-07T10:12:32.962Z,5.15
2019-06-07T10:14:23.461Z,4.53
2019-06-07T10:16:14.866Z,6.05
2019-06-07T10:18:06.945Z,5.50
2019-06-07T10:20:00.504Z,5.15
2019-06-07T10:21:50.512Z,4.67
2019-06-07T10:23:40.900Z,5.03
2019-06-07T10:25:32.036Z,4.60
2019-06-07T10:27:22.875Z,4.90
2019-06-07T10:29:13.850Z,4.50
2019-06-07T10:31:07.299Z,4.58
2019-06-07T10:32:57.087Z,4.45
2019-06-07T10:34:48.313Z,4.50
2019-06-07T10:36:39.273Z,5.15
2019-06-07T10:38:30.448Z,4.72
2019-06-07T10:40:20.912Z,4.40
2019-06-07T10:42:11.669Z,4.65
2019-06-07T10:44:03.394Z,4.25
2019-06-07T10:45:54.018Z,4.30
2019-06-07T10:47:45.185Z,4.20
2019-06-07T10:49:36.317Z,4.12
2019-06-07T10:51:26.875Z,4.80
2019-06-07T10:53:17.731Z,4.80
2019-06-07T10:55:08.686Z,4.20
2019-06-07T10:56:59.493Z,4.30
2019-06-07T10:58:50.099Z,4.15
2019-06-07T11:00:41.295Z,4.22
2019-06-07T11:02:31.847Z,4.37
2019-06-07T11:04:22.850Z,4.47
2019-06-07T11:06:14.200Z,4.60
2019-06-07T11:08:05.998Z,4.85
2019-06-07T11:10:07.244Z,4.20
2019-06-07T11:11:49.474Z,4.03
2019-06-07T11:13:40.365Z,4.22
2019-06-07T11:15:31.614Z,4.20
2019-06-07T11:17:22.375Z,4.72
2019-06-07T11:19:17.276Z,4.53
2019-06-07T11:21:06.065Z,4.17
2019-06-07T11:22:56.879Z,4.50
2019-06-07T11:24:47.386Z,3.72
2019-06-07T11:26:38.343Z,4.17
2019-06-07T11:28:29.299Z,4.65
2019-06-07T11:30:19.798Z,4.17
2019-06-07T11:32:10.927Z,4.10
2019-06-07T11:34:01.848Z,4.60
2019-06-07T11:35:52.910Z,4.33
2019-06-07T11:37:43.527Z,4.10
2019-06-07T11:39:34.331Z,3.85
2019-06-07T11:41:25.043Z,3.83
2019-06-07T11:43:17.440Z,4.37
2019-06-07T11:45:10.226Z,3.75
2019-06-07T11:47:00.645Z,4.08
2019-06-07T11:48:51.135Z,4.20
2019-06-07T11:50:42.051Z,3.90
2019-06-07T11:52:33.400Z,4.20
2019-06-07T11:54:24.235Z,3.75
2019-06-07T11:56:16.015Z,3.58
2019-06-07T11:58:12.625Z,3.72
2019-06-07T11:59:59.432Z,4.10
2019-06-07T12:01:49.987Z,4.15
2019-06-07T12:03:40.428Z,4.00
2019-06-07T12:05:31.511Z,3.83
2019-06-07T12:07:21.707Z,4.15
2019-06-07T12:09:12.541Z,3.85
2019-06-07T12:11:03.643Z,3.52
2019-06-07T12:12:54.912Z,3.80
2019-06-07T12:14:45.944Z,3.60
2019-06-07T12:16:36.489Z,3.37
2019-06-07T12:18:27.646Z,3.70
2019-06-07T12:20:20.880Z,3.55
2019-06-07T12:22:11.736Z,4.00
2019-06-07T12:24:03.434Z,3.60
2019-06-07T12:25:54.698Z,4.00
2019-06-07T12:27:45.867Z,3.80
2019-06-07T12:29:37.121Z,3.87
2019-06-07T12:31:28.008Z,3.80
2019-06-07T12:33:19.707Z,4.00
2019-06-07T12:35:11.510Z,4.20
2019-06-07T12:37:02.247Z,3.50
2019-06-07T12:38:53.612Z,3.42
2019-06-07T12:40:56.759Z,3.58
2019-06-07T12:42:36.621Z,4.20
2019-06-07T12:44:28.359Z,3.42
2019-06-07T12:46:23.001Z,3.77
2019-06-07T12:48:11.291Z,3.98
2019-06-07T12:50:02.547Z,3.62
2019-06-07T12:51:53.799Z,3.27
2019-06-07T12:53:44.643Z,3.98
2019-06-07T12:55:35.693Z,3.70
2019-06-07T12:57:26.325Z,3.42
2019-06-07T12:59:17.929Z,3.40
2019-06-07T13:01:09.191Z,4.05
2019-06-07T13:03:00.460Z,3.77
2019-06-07T13:04:51.811Z,3.60
2019-06-07T13:06:42.347Z,3.80
2019-06-07T13:08:33.471Z,3.40
2019-06-07T13:10:24.673Z,3.87
2019-06-07T13:12:15.809Z,3.72
2019-06-07T13:14:07.034Z,3.65
2019-06-07T13:15:58.008Z,4.40
2019-06-07T13:17:49.041Z,3.77
2019-06-07T13:19:40.182Z,3.85
2019-06-07T13:21:31.361Z,3.55
2019-06-07T13:23:22.723Z,3.60
2019-06-07T13:25:13.986Z,3.70
2019-06-07T13:27:05.028Z,3.30
2019-06-07T13:28:56.221Z,3.67
2019-06-07T13:30:47.480Z,4.90
2019-06-07T13:32:38.809Z,3.50
2019-06-07T13:34:29.271Z,3.17
2019-06-07T13:36:20.229Z,2.92
2019-06-07T13:38:11.452Z,2.90
2019-06-07T13:40:02.592Z,3.12
2019-06-07T13:41:53.943Z,2.80
2019-06-07T13:43:45.413Z,2.25
2019-06-07T13:45:36.188Z,2.90
2019-06-07T13:47:27.633Z,2.58
2019-06-07T13:49:19.444Z,2.50
2019-06-07T13:51:09.902Z,2.67
2019-06-07T13:53:00.419Z,2.60
2019-06-07T13:54:51.244Z,2.33
2019-06-07T13:57:00.786Z,3.15
2019-06-07T13:58:34.907Z,2.65
2019-06-07T14:00:26.509Z,3.52
2019-06-07T14:02:18.444Z,2.90
2019-06-07T14:04:10.016Z,2.75
2019-06-07T14:06:01.167Z,2.40
2019-06-07T14:07:52.305Z,2.37
2019-06-07T14:09:43.439Z,2.77
2019-06-07T14:11:49.466Z,2.60
2019-06-07T14:13:26.324Z,2.47
2019-06-07T14:15:17.526Z,2.70
2019-06-07T14:17:08.519Z,2.60
2019-06-07T14:18:59.809Z,2.52
2019-06-07T14:20:50.255Z,2.30
2019-06-07T14:22:40.519Z,2.45
2019-06-07T14:24:31.308Z,2.40
2019-06-07T14:26:23.218Z,2.67
2019-06-07T14:28:14.081Z,2.45
2019-06-07T14:30:04.822Z,2.47
2019-06-07T14:31:56.455Z,2.52
2019-06-07T14:33:47.162Z,2.60
2019-06-07T14:35:38.375Z,2.80
2019-06-07T14:37:30.961Z,2.58
2019-06-07T14:39:23.056Z,2.55
2019-06-07T14:41:14.010Z,2.62
2019-06-07T14:43:04.790Z,2.33
2019-06-07T14:44:55.695Z,2.50
2019-06-07T14:46:47.000Z,2.52
2019-06-07T14:48:37.760Z,2.50
2019-06-07T14:50:28.378Z,2.52
2019-06-07T14:52:18.829Z,2.60
2019-06-07T14:54:09.998Z,2.37
2019-06-07T14:56:01.246Z,2.60
2019-06-07T14:57:52.515Z,2.20
2019-06-07T14:59:43.056Z,2.75
2019-06-07T15:01:35.643Z,2.25
2019-06-07T15:03:28.310Z,2.52
2019-06-07T15:05:19.735Z,2.40
2019-06-07T15:07:11.029Z,2.10
2019-06-07T15:09:01.574Z,2.83
2019-06-07T15:10:52.821Z,2.67
2019-06-07T15:12:43.649Z,2.02
2019-06-07T15:14:35.490Z,2.05
2019-06-07T15:16:27.412Z,2.52
2019-06-07T15:18:18.210Z,2.35
2019-06-07T15:20:09.525Z,2.52
2019-06-07T15:22:00.467Z,2.55
2019-06-07T15:23:51.895Z,2.27
2019-06-07T15:25:43.137Z,2.40
2019-06-07T15:27:35.323Z,2.58
2019-06-07T15:29:27.405Z,2.40
2019-06-07T15:31:18.352Z,2.60
2019-06-07T15:33:08.863Z,2.25
2019-06-07T15:34:59.402Z,2.50
2019-06-07T15:36:50.641Z,2.72
2019-06-07T15:38:41.887Z,2.30
2019-06-07T15:40:33.217Z,2.37
2019-06-07T15:42:40.132Z,2.50
2019-06-07T15:44:16.386Z,2.95
2019-06-07T15:46:07.005Z,2.87
2019-06-07T15:47:58.436Z,2.83
2019-06-07T15:49:49.649Z,2.20
2019-06-07T15:51:41.044Z,2.50
2019-06-07T15:53:36.277Z,2.95
2019-06-07T15:55:23.949Z,2.77
2019-06-07T15:57:15.167Z,2.70
2019-06-07T15:59:06.305Z,3.00
2019-06-07T16:00:56.829Z,2.80
2019-06-07T16:02:48.276Z,3.20
2019-06-07T16:04:39.796Z,3.05
2019-06-07T16:06:31.916Z,3.00
2019-06-07T16:08:22.843Z,2.83
2019-06-07T16:10:14.159Z,3.02
2019-06-07T16:12:05.438Z,3.27
2019-06-07T16:13:56.568Z,3.02
2019-06-07T16:15:47.147Z,3.35
2019-06-07T16:17:39.254Z,3.20
2019-06-07T16:19:30.633Z,3.40
2019-06-07T16:21:21.511Z,3.30
2019-06-07T16:23:12.827Z,3.50
2019-06-07T16:25:04.176Z,3.50
2019-06-07T16:26:55.414Z,3.42
2019-06-07T16:28:46.603Z,3.50
2019-06-07T16:30:38.402Z,3.60
2019-06-07T16:32:29.506Z,3.55
2019-06-07T16:34:20.920Z,3.87
2019-06-07T16:36:12.203Z,3.77
2019-06-07T16:38:03.062Z,3.70
2019-06-07T16:39:53.660Z,3.27
2019-06-07T16:41:45.021Z,3.25
2019-06-07T16:43:36.544Z,3.72
2019-06-07T16:45:27.467Z,3.80
2019-06-07T16:47:18.652Z,3.50
2019-06-07T16:49:09.865Z,3.50
2019-06-07T16:51:01.148Z,3.55
2019-06-07T16:52:52.450Z,3.60
2019-06-07T16:54:43.740Z,4.10
2019-06-07T16:56:35.101Z,4.17
2019-06-07T16:58:26.334Z,4.20
2019-06-07T17:00:17.513Z,3.85
2019-06-07T17:02:08.910Z,3.80
2019-06-07T17:04:00.158Z,4.15
2019-06-07T17:05:50.796Z,3.50
2019-06-07T17:07:46.754Z,3.65
2019-06-07T17:09:38.137Z,3.80
2019-06-07T17:11:29.564Z,3.62
2019-06-07T17:13:33.120Z,4.08
2019-06-07T17:15:13.096Z,4.58
2019-06-07T17:17:04.332Z,3.90
2019-06-07T17:18:55.684Z,4.00
2019-06-07T17:20:47.376Z,3.67
2019-06-07T17:22:39.080Z,4.33
2019-06-07T17:24:29.957Z,3.40
2019-06-07T17:26:20.872Z,4.10
2019-06-07T17:28:12.266Z,4.00
2019-06-07T17:30:03.653Z,4.47
2019-06-07T17:31:54.325Z,4.65
2019-06-07T17:33:46.007Z,4.25
2019-06-07T17:35:36.904Z,4.10
2019-06-07T17:37:27.459Z,4.33
2019-06-07T17:39:18.767Z,4.20
2019-06-07T17:41:09.297Z,4.58
2019-06-07T17:43:00.293Z,3.92
2019-06-07T17:44:51.519Z,4.42
2019-06-07T17:46:43.390Z,4.28
2019-06-07T17:48:34.208Z,4.60
2019-06-07T17:50:28.479Z,4.90
2019-06-07T17:52:19.055Z,4.30
2019-06-07T17:54:10.264Z,4.70
2019-06-07T17:56:00.842Z,4.50
2019-06-07T17:57:52.663Z,4.90
2019-06-07T17:59:44.335Z,4.92
2019-06-07T18:01:41.472Z,4.45
2019-06-07T18:03:26.841Z,4.37
2019-06-07T18:05:18.037Z,4.25
2019-06-07T18:07:09.308Z,4.50
2019-06-07T18:08:59.860Z,5.20
2019-06-07T18:10:52.076Z,4.95
2019-06-07T18:12:43.926Z,4.70
2019-06-07T18:14:35.192Z,4.67
2019-06-07T18:16:26.432Z,4.80
2019-06-07T18:18:17.850Z,5.00
2019-06-07T18:20:08.419Z,5.70
2019-06-07T18:21:59.265Z,5.00
2019-06-07T18:23:50.455Z,5.10
2019-06-07T18:25:41.587Z,4.75
2019-06-07T18:27:32.399Z,5.17
2019-06-07T18:29:23.901Z,5.53
2019-06-07T18:31:15.364Z,5.08
2019-06-07T18:33:06.518Z,5.42
2019-06-07T18:34:57.468Z,5.40
2019-06-07T18:36:48.976Z,6.10
2019-06-07T18:38:39.847Z,6.55
2019-06-07T18:40:31.000Z,5.15
2019-06-07T18:42:22.202Z,5.72
2019-06-07T18:44:21.452Z,5.35
2019-06-07T18:46:05.999Z,5.62
2019-06-07T18:47:57.786Z,5.72
2019-06-07T18:49:49.540Z,5.95
2019-06-07T18:51:41.108Z,5.85
2019-06-07T18:53:31.691Z,6.20
2019-06-07T18:55:22.928Z,5.40
2019-06-07T18:57:14.252Z,5.40
2019-06-07T18:59:05.760Z,5.95
2019-06-07T19:00:57.574Z,5.47
2019-06-07T19:02:48.005Z,5.72
2019-06-07T19:04:38.580Z,5.55
2019-06-07T19:06:29.880Z,5.58
2019-06-07T19:08:20.432Z,5.58
2019-06-07T19:10:11.010Z,5.87
2019-06-07T19:12:02.297Z,6.15
2019-06-07T19:13:53.404Z,6.03
2019-06-07T19:15:44.865Z,6.10
2019-06-07T19:17:35.641Z,6.65
2019-06-07T19:19:26.761Z,5.80
2019-06-07T19:21:17.747Z,6.20
2019-06-07T19:23:08.356Z,6.50
2019-06-07T19:25:00.487Z,6.53
2019-06-07T19:26:52.451Z,5.78
2019-06-07T19:28:43.107Z,7.45
2019-06-07T19:30:34.393Z,6.12
2019-06-07T19:32:29.967Z,6.72
2019-06-07T19:34:20.364Z,5.72
2019-06-07T19:36:11.585Z,6.78
2019-06-07T19:38:02.857Z,6.50
2019-06-07T19:39:53.805Z,6.45
2019-06-07T19:41:44.728Z,6.50
2019-06-07T19:43:36.211Z,7.10
2019-06-07T19:45:30.876Z,6.58
2019-06-07T19:47:19.735Z,6.33
2019-06-07T19:49:10.936Z,6.78
2019-06-07T19:51:03.176Z,7.03
2019-06-07T19:52:54.990Z,7.00
2019-06-07T19:54:45.801Z,6.83
2019-06-07T19:56:37.094Z,7.95
2019-06-07T19:58:27.909Z,7.95
2019-06-07T20:00:18.568Z,7.92
2019-06-07T20:02:09.622Z,8.00
2019-06-07T20:04:00.267Z,7.25
2019-06-07T20:05:50.872Z,7.65
2019-06-07T20:07:42.144Z,7.33
2019-06-07T20:09:32.762Z,7.22
2019-06-07T20:11:23.628Z,7.90
2019-06-07T20:13:14.161Z,8.48
2019-06-07T20:15:25.187Z,7.95
2019-06-07T20:16:59.449Z,7.70
2019-06-07T20:18:51.556Z,8.15
2019-06-07T20:20:42.460Z,8.23
2019-06-07T20:22:32.979Z,8.43
2019-06-07T20:24:27.356Z,7.92
2019-06-07T20:26:16.123Z,7.45
2019-06-07T20:28:06.861Z,7.58
2019-06-07T20:29:58.235Z,7.65
2019-06-07T20:31:49.483Z,7.45
2019-06-07T20:33:40.732Z,6.35
2019-06-07T20:35:31.961Z,6.00
2019-06-07T20:37:23.417Z,5.85
2019-06-07T20:39:14.621Z,5.97
2019-06-07T20:41:05.915Z,6.22
2019-06-07T20:42:57.469Z,5.15
2019-06-07T20:44:48.545Z,5.85
2019-06-07T20:46:39.967Z,5.00
2019-06-07T20:48:30.507Z,5.00
2019-06-07T20:50:21.336Z,5.30
2019-06-07T20:52:15.103Z,5.22
2019-06-07T20:54:05.604Z,4.50
2019-06-07T20:55:56.647Z,4.85
2019-06-07T20:57:47.834Z,4.47
2019-06-07T20:59:38.843Z,4.55
2019-06-07T21:01:30.248Z,4.30
2019-06-07T21:03:21.551Z,4.58
2019-06-07T21:07:10.230Z,4.40
2019-06-07T21:09:01.491Z,4.28
2019-06-07T21:10:53.158Z,3.50
2019-06-07T21:12:43.879Z,3.98
2019-06-07T21:14:34.551Z,3.83
2019-06-07T21:16:25.449Z,3.83
2019-06-07T21:18:19.297Z,3.30
2019-06-07T21:20:10.354Z,3.40
2019-06-07T21:22:00.416Z,3.02
2019-06-07T21:23:51.567Z,3.20
2019-06-07T21:25:42.956Z,3.52
2019-06-07T21:27:33.844Z,2.60
2019-06-07T21:29:24.541Z,2.67
2019-06-07T21:31:15.182Z,2.98
2019-06-07T21:33:07.628Z,2.30
2019-06-07T21:34:58.984Z,2.55
2019-06-07T21:36:49.873Z,2.10
2019-06-07T21:38:41.090Z,2.50
2019-06-07T21:40:32.508Z,2.22
2019-06-07T21:42:23.376Z,2.27
2019-06-07T21:44:13.953Z,2.30
2019-06-07T21:46:09.336Z,2.85
2019-06-07T21:47:57.390Z,3.17
2019-06-07T21:49:48.039Z,2.25
2019-06-07T21:51:38.679Z,1.90
2019-06-07T21:53:29.664Z,1.87
2019-06-07T21:55:20.852Z,1.77
2019-06-07T21:57:13.086Z,1.90
2019-06-07T21:59:05.078Z,1.60
2019-06-07T22:00:56.481Z,1.32
2019-06-07T22:02:50.037Z,1.20
2019-06-07T22:04:40.873Z,1.42
2019-06-07T22:06:31.736Z,1.12
2019-06-07T22:08:22.329Z,1.32
2019-06-07T22:10:14.484Z,1.27
2019-06-07T22:12:06.041Z,1.47
2019-06-07T22:13:56.678Z,1.20
2019-06-07T22:15:47.940Z,1.22
2019-06-07T22:17:39.244Z,1.10
2019-06-07T22:19:30.443Z,1.22
2019-06-07T22:21:21.018Z,1.30
2019-06-07T22:23:12.755Z,1.15
2019-06-07T22:25:04.794Z,1.10
2019-06-07T22:26:55.867Z,1.00
2019-06-07T22:28:47.107Z,1.00
2019-06-07T22:30:38.799Z,0.80
2019-06-07T22:32:29.346Z,0.90
2019-06-07T22:34:20.610Z,1.30
2019-06-07T22:36:11.134Z,0.80
2019-06-07T22:38:02.328Z,1.00
2019-06-07T22:39:53.060Z,1.00
2019-06-07T22:41:44.087Z,1.02
2019-06-07T22:43:34.939Z,0.90
2019-06-07T22:45:26.171Z,0.80
2019-06-07T22:47:18.272Z,0.80
2019-06-07T22:49:11.272Z,0.65
2019-06-07T22:51:02.453Z,0.85
2019-06-07T22:52:53.392Z,1.05
2019-06-07T22:54:44.860Z,0.82
2019-06-07T22:56:35.821Z,1.07
2019-06-07T22:58:26.987Z,0.80
2019-06-07T23:00:19.458Z,0.80
2019-06-07T23:02:10.688Z,0.78
2019-06-07T23:04:01.842Z,0.90
2019-06-07T23:05:52.372Z,0.90
2019-06-07T23:07:43.675Z,0.85
2019-06-07T23:09:34.289Z,0.80
2019-06-07T23:11:25.014Z,0.88
2019-06-07T23:13:17.726Z,1.00
2019-06-07T23:15:09.400Z,0.80
2019-06-07T23:17:00.403Z,0.70
2019-06-07T23:18:51.053Z,0.90
2019-06-07T23:20:42.239Z,0.90
2019-06-07T23:22:33.320Z,0.85
2019-06-07T23:24:24.616Z,0.82
2019-06-07T23:26:16.291Z,0.93
2019-06-07T23:28:07.413Z,0.95
2019-06-07T23:29:58.672Z,0.80
2019-06-07T23:31:49.886Z,0.93
2019-06-07T23:33:40.960Z,1.20
2019-06-07T23:35:32.085Z,1.00
2019-06-07T23:37:22.931Z,0.82
2019-06-07T23:39:15.315Z,0.88
2019-06-07T23:41:06.389Z,1.00
2019-06-07T23:42:57.512Z,0.95
2019-06-07T23:44:48.824Z,0.60
2019-06-07T23:46:40.219Z,0.95
2019-06-07T23:48:30.864Z,1.10
2019-06-07T23:50:21.864Z,0.80
2019-06-07T23:52:13.865Z,0.90
2019-06-07T23:54:04.410Z,1.15
2019-06-07T23:55:55.696Z,0.85
2019-06-07T23:57:47.211Z,0.78
2019-06-07T23:59:38.333Z,1.15
